createdAt,value
2022-12-23T00:00:09.583Z,889.33
2022-12-23T00:01:06.589Z,888.77
2022-12-23T00:02:06.712Z,888.79
2022-12-23T00:03:06.673Z,888.97
2022-12-23T00:04:06.623Z,888.53
2022-12-23T00:05:06.542Z,887.94
2022-12-23T00:06:06.549Z,887.69
2022-12-23T00:07:06.598Z,887.65
2022-12-23T00:08:06.621Z,887.8
2022-12-23T00:09:06.545Z,887.82
2022-12-23T00:10:06.679Z,887.82
2022-12-23T00:11:09.649Z,888.04
2022-12-23T00:12:06.595Z,888.12
2022-12-23T00:13:06.557Z,888.26
2022-12-23T00:14:06.563Z,887.93
2022-12-23T00:15:06.558Z,888.24
2022-12-23T00:16:06.615Z,888.38
2022-12-23T00:17:21.471Z,888.18
2022-12-23T00:18:06.564Z,888.58
2022-12-23T00:19:06.563Z,888.49
2022-12-23T00:20:06.567Z,888.57
2022-12-23T00:21:08.736Z,888.83
2022-12-23T00:22:08.153Z,888.54
2022-12-23T00:23:06.585Z,888.72
2022-12-23T00:24:06.573Z,888.87
2022-12-23T00:25:06.573Z,889.09
2022-12-23T00:26:06.600Z,889.35
2022-12-23T00:27:06.583Z,889.32
2022-12-23T00:28:06.594Z,888.54
2022-12-23T00:29:06.580Z,888.46
2022-12-23T00:30:06.577Z,887.74
2022-12-23T00:31:06.587Z,887.47
2022-12-23T00:32:06.646Z,887.12
2022-12-23T00:33:09.409Z,886.79
2022-12-23T00:34:06.587Z,886.37
2022-12-23T00:35:06.593Z,885.8
2022-12-23T00:36:06.633Z,885.53
2022-12-23T00:37:06.589Z,884.76
2022-12-23T00:38:06.591Z,883.62
2022-12-23T00:39:06.636Z,882.3
2022-12-23T00:40:07.083Z,881.85
2022-12-23T00:41:06.595Z,881.62
2022-12-23T00:42:06.630Z,880.66
2022-12-23T00:43:06.605Z,880.99
2022-12-23T00:44:09.748Z,881.33
2022-12-23T00:45:06.611Z,880.86
2022-12-23T00:46:06.669Z,880.71
2022-12-23T00:47:06.607Z,880.89
2022-12-23T00:48:06.631Z,880.78
2022-12-23T00:49:06.607Z,880.74
2022-12-23T00:50:06.619Z,880.76
2022-12-23T00:51:06.633Z,880.78
2022-12-23T00:52:06.639Z,880.46
2022-12-23T00:53:06.613Z,880.59
2022-12-23T00:54:06.616Z,880.2
2022-12-23T00:55:09.473Z,879.51
2022-12-23T00:56:06.622Z,879.28
2022-12-23T00:57:06.622Z,878.9
2022-12-23T00:58:06.705Z,878.44
2022-12-23T00:59:06.625Z,877.96
2022-12-23T01:00:06.635Z,877.58
2022-12-23T01:01:06.693Z,876.8
2022-12-23T01:02:06.841Z,876.75
2022-12-23T01:03:06.792Z,875.73
2022-12-23T01:04:06.638Z,875.36
2022-12-23T01:05:06.642Z,874.93
2022-12-23T01:06:06.644Z,874.84
2022-12-23T01:07:06.638Z,874.05
2022-12-23T01:08:06.643Z,873.4
2022-12-23T01:09:06.633Z,872.89
2022-12-23T01:10:06.658Z,872.96
2022-12-23T01:11:06.649Z,872.1
2022-12-23T01:12:06.644Z,870.64
2022-12-23T01:13:06.683Z,870.02
2022-12-23T01:14:06.669Z,869.46
2022-12-23T01:15:06.660Z,868.9
2022-12-23T01:16:08.324Z,868.28
2022-12-23T01:17:06.727Z,868.04
2022-12-23T01:18:06.659Z,867.8
2022-12-23T01:19:06.660Z,868.02
2022-12-23T01:20:06.657Z,868.17
2022-12-23T01:21:06.660Z,868.28
2022-12-23T01:22:06.665Z,868.15
2022-12-23T01:23:06.661Z,869.1
2022-12-23T01:24:06.661Z,869.24
2022-12-23T01:25:06.659Z,870.39
2022-12-23T01:26:06.675Z,870.9
2022-12-23T01:27:06.673Z,870.98
2022-12-23T01:28:06.676Z,871.84
2022-12-23T01:29:06.675Z,872.34
2022-12-23T01:30:06.702Z,872.7
2022-12-23T01:31:06.671Z,872.81
2022-12-23T01:32:06.771Z,873.91
2022-12-23T01:33:06.673Z,873.72
2022-12-23T01:34:06.678Z,874.04
2022-12-23T01:35:06.688Z,874.65
2022-12-23T01:36:06.694Z,875.29
2022-12-23T01:37:06.683Z,875.95
2022-12-23T01:38:06.712Z,876.05
2022-12-23T01:39:06.686Z,876.45
2022-12-23T01:40:06.691Z,876.4
2022-12-23T01:41:06.688Z,876.4
2022-12-23T01:42:06.696Z,876.38
2022-12-23T01:43:06.722Z,876.83
2022-12-23T01:44:06.705Z,876.39
2022-12-23T01:45:06.707Z,876.75
2022-12-23T01:46:06.781Z,876.19
2022-12-23T01:47:06.693Z,876.15
2022-12-23T01:48:06.728Z,876
2022-12-23T01:49:06.703Z,876.04
2022-12-23T01:50:06.698Z,876.9
2022-12-23T01:51:06.715Z,876.27
2022-12-23T01:52:06.700Z,876.28
2022-12-23T01:53:07.943Z,876.27
2022-12-23T01:54:06.712Z,875.91
2022-12-23T01:55:06.712Z,875.71
2022-12-23T01:56:06.785Z,875.22
2022-12-23T01:57:06.719Z,875.24
2022-12-23T01:58:06.773Z,875.02
2022-12-23T01:59:06.715Z,875.02
2022-12-23T02:00:06.724Z,874.96
2022-12-23T02:01:06.751Z,874.87
2022-12-23T02:02:06.892Z,874.63
2022-12-23T02:03:06.877Z,873.72
2022-12-23T02:04:06.736Z,872.57
2022-12-23T02:05:06.722Z,871.89
2022-12-23T02:06:06.738Z,870.56
2022-12-23T02:07:06.750Z,869.56
2022-12-23T02:08:06.753Z,869.17
2022-12-23T02:09:06.736Z,868.36
2022-12-23T02:10:06.748Z,867.95
2022-12-23T02:11:06.738Z,867.31
2022-12-23T02:12:06.758Z,867.41
2022-12-23T02:13:06.767Z,867.14
2022-12-23T02:14:06.737Z,866.61
2022-12-23T02:15:06.742Z,866.11
2022-12-23T02:16:06.743Z,865.88
2022-12-23T02:17:06.819Z,865.8
2022-12-23T02:18:06.816Z,865.6
2022-12-23T02:19:06.766Z,865.63
2022-12-23T02:20:06.744Z,865.46
2022-12-23T02:21:06.764Z,865.58
2022-12-23T02:22:06.750Z,865.23
2022-12-23T02:23:06.773Z,865.32
2022-12-23T02:24:06.761Z,865.1
2022-12-23T02:25:06.758Z,865.37
2022-12-23T02:26:06.761Z,865.58
2022-12-23T02:27:06.757Z,866.49
2022-12-23T02:28:06.798Z,866.9
2022-12-23T02:29:06.762Z,867.66
2022-12-23T02:30:06.757Z,867.77
2022-12-23T02:31:06.869Z,868.1
2022-12-23T02:32:06.768Z,868.63
2022-12-23T02:33:06.808Z,869.07
2022-12-23T02:34:06.798Z,869.14
2022-12-23T02:35:06.776Z,869.34
2022-12-23T02:36:06.775Z,869.59
2022-12-23T02:37:06.775Z,869.57
2022-12-23T02:38:06.798Z,870.11
2022-12-23T02:39:06.789Z,870.5
2022-12-23T02:40:06.777Z,870.73
2022-12-23T02:41:06.787Z,871.02
2022-12-23T02:42:06.777Z,871.04
2022-12-23T02:43:06.802Z,871.13
2022-12-23T02:44:06.793Z,872.04
2022-12-23T02:45:06.789Z,871.84
2022-12-23T02:46:06.890Z,872.39
2022-12-23T02:47:06.793Z,872.11
2022-12-23T02:48:06.818Z,872.28
2022-12-23T02:49:09.886Z,871.96
2022-12-23T02:50:06.793Z,872.47
2022-12-23T02:51:06.801Z,872.66
2022-12-23T02:52:06.823Z,872.25
2022-12-23T02:53:06.816Z,872.66
2022-12-23T02:54:06.796Z,872.97
2022-12-23T02:55:06.801Z,872.49
2022-12-23T02:56:06.810Z,872.51
2022-12-23T02:57:06.810Z,872.77
2022-12-23T02:58:06.833Z,873.28
2022-12-23T02:59:06.822Z,873.54
2022-12-23T03:00:09.643Z,873.27
2022-12-23T03:01:06.822Z,873.45
2022-12-23T03:02:06.931Z,873.48
2022-12-23T03:03:06.934Z,873.07
2022-12-23T03:04:07.115Z,873.09
2022-12-23T03:05:06.946Z,873.5
2022-12-23T03:06:06.819Z,873.23
2022-12-23T03:07:07.788Z,873.45
2022-12-23T03:08:06.852Z,873.52
2022-12-23T03:09:06.822Z,873.11
2022-12-23T03:10:06.824Z,873.49
2022-12-23T03:11:09.843Z,873
2022-12-23T03:12:06.832Z,873.11
2022-12-23T03:13:06.852Z,873.09
2022-12-23T03:14:06.835Z,873.28
2022-12-23T03:15:06.830Z,873.19
2022-12-23T03:16:06.894Z,873.47
2022-12-23T03:17:06.903Z,873.51
2022-12-23T03:18:06.880Z,873.47
2022-12-23T03:19:06.840Z,873.9
2022-12-23T03:20:06.834Z,873.78
2022-12-23T03:21:06.873Z,873.8
2022-12-23T03:22:09.930Z,874.03
2022-12-23T03:23:06.878Z,873.76
2022-12-23T03:24:06.839Z,873.49
2022-12-23T03:25:06.878Z,873.96
2022-12-23T03:26:06.848Z,873.98
2022-12-23T03:27:06.852Z,874.09
2022-12-23T03:28:06.886Z,873.76
2022-12-23T03:29:06.852Z,874.03
2022-12-23T03:30:06.862Z,874.14
2022-12-23T03:31:06.882Z,873.86
2022-12-23T03:32:06.857Z,873.99
2022-12-23T03:33:09.902Z,874.32
2022-12-23T03:34:06.882Z,873.85
2022-12-23T03:35:06.859Z,874.46
2022-12-23T03:36:06.873Z,874.19
2022-12-23T03:37:06.893Z,874.67
2022-12-23T03:38:06.891Z,874.63
2022-12-23T03:39:06.867Z,874.45
2022-12-23T03:40:06.879Z,874.74
2022-12-23T03:41:06.880Z,874.68
2022-12-23T03:42:06.875Z,874.81
2022-12-23T03:43:06.905Z,875.05
2022-12-23T03:44:06.873Z,875.33
2022-12-23T03:46:06.912Z,875.44
2022-12-23T03:47:06.881Z,876.06
2022-12-23T03:48:06.909Z,875.81
2022-12-23T03:49:06.884Z,876.18
2022-12-23T03:50:06.890Z,876.12
2022-12-23T03:51:06.888Z,875.8
2022-12-23T03:52:06.898Z,876.24
2022-12-23T03:53:06.937Z,875.91
2022-12-23T03:54:06.899Z,876.23
2022-12-23T03:55:06.888Z,876.19
2022-12-23T03:56:06.902Z,876.26
2022-12-23T03:57:06.899Z,876.64
2022-12-23T03:58:06.918Z,876.68
2022-12-23T03:59:06.905Z,876.87
2022-12-23T04:00:06.998Z,876.79
2022-12-23T04:01:06.909Z,876.93
2022-12-23T04:02:07.104Z,876.61
2022-12-23T04:03:06.936Z,876.68
2022-12-23T04:04:07.085Z,877.25
2022-12-23T04:05:06.946Z,877.14
2022-12-23T04:06:06.907Z,877.04
2022-12-23T04:07:06.909Z,876.92
2022-12-23T04:08:06.979Z,877.84
2022-12-23T04:09:06.938Z,878.39
2022-12-23T04:10:06.910Z,878.47
2022-12-23T04:11:06.912Z,878.93
2022-12-23T04:12:06.923Z,878.87
2022-12-23T04:13:06.965Z,879.29
2022-12-23T04:14:06.921Z,879.4
2022-12-23T04:15:12.461Z,879.66
2022-12-23T04:16:07.001Z,880.29
2022-12-23T04:17:06.924Z,880.05
2022-12-23T04:18:06.956Z,880.11
2022-12-23T04:19:06.947Z,880.07
2022-12-23T04:20:06.934Z,880.47
2022-12-23T04:21:06.940Z,880.36
2022-12-23T04:22:06.938Z,880.6
2022-12-23T04:23:06.960Z,880.35
2022-12-23T04:24:06.944Z,879.88
2022-12-23T04:25:06.959Z,879.62
2022-12-23T04:26:06.949Z,879.97
2022-12-23T04:27:06.950Z,880.01
2022-12-23T04:28:06.983Z,880
2022-12-23T04:29:06.959Z,879.75
2022-12-23T04:30:06.954Z,879.89
2022-12-23T04:31:06.995Z,880.35
2022-12-23T04:32:06.953Z,879.94
2022-12-23T04:33:06.978Z,879.97
2022-12-23T04:34:06.956Z,879.48
2022-12-23T04:35:06.961Z,878.69
2022-12-23T04:36:06.978Z,878.93
2022-12-23T04:37:06.957Z,878.3
2022-12-23T04:38:06.990Z,878.22
2022-12-23T04:39:06.972Z,877.8
2022-12-23T04:40:06.972Z,878.1
2022-12-23T04:41:06.992Z,878.02
2022-12-23T04:42:07.068Z,878.09
2022-12-23T04:43:06.996Z,878.06
2022-12-23T04:44:06.973Z,878.14
2022-12-23T04:45:06.967Z,878.46
2022-12-23T04:46:07.069Z,877.15
2022-12-23T04:47:07.089Z,876.11
2022-12-23T04:48:07.009Z,875.67
2022-12-23T04:49:06.981Z,874.58
2022-12-23T04:50:06.977Z,874.09
2022-12-23T04:51:06.976Z,873.71
2022-12-23T04:52:06.986Z,873.59
2022-12-23T04:53:07.009Z,873.67
2022-12-23T04:54:06.986Z,873.38
2022-12-23T04:55:06.991Z,873.77
2022-12-23T04:56:06.988Z,873.52
2022-12-23T04:57:07.011Z,873.88
2022-12-23T04:58:07.024Z,874
2022-12-23T04:59:06.999Z,873.95
2022-12-23T05:00:06.993Z,874.04
2022-12-23T05:01:07.098Z,874.24
2022-12-23T05:02:07.160Z,874.01
2022-12-23T05:03:07.151Z,873.9
2022-12-23T05:04:07.002Z,874.35
2022-12-23T05:05:07.016Z,874.24
2022-12-23T05:06:07.011Z,873.98
2022-12-23T05:07:07.004Z,874.13
2022-12-23T05:08:07.028Z,874.85
2022-12-23T05:09:07.005Z,874.73
2022-12-23T05:10:07.014Z,874.83
2022-12-23T05:11:07.010Z,875.28
2022-12-23T05:12:07.028Z,874.74
2022-12-23T05:13:07.109Z,874.56
2022-12-23T05:14:07.036Z,874.99
2022-12-23T05:15:07.018Z,875.38
2022-12-23T05:16:10.070Z,875.8
2022-12-23T05:17:07.837Z,875.69
2022-12-23T05:18:07.062Z,876.22
2022-12-23T05:19:07.044Z,876.66
2022-12-23T05:20:07.039Z,876.58
2022-12-23T05:21:07.127Z,876.31
2022-12-23T05:22:07.022Z,876.73
2022-12-23T05:23:07.060Z,876.75
2022-12-23T05:24:07.042Z,877.06
2022-12-23T05:25:07.037Z,877.87
2022-12-23T05:26:07.035Z,877.55
2022-12-23T05:27:09.850Z,877.68
2022-12-23T05:28:07.077Z,878.32
2022-12-23T05:29:07.081Z,877.61
2022-12-23T05:30:07.037Z,877.98
2022-12-23T05:31:07.076Z,877.87
2022-12-23T05:32:07.122Z,877.76
2022-12-23T05:33:07.133Z,877.49
2022-12-23T05:34:07.181Z,877.78
2022-12-23T05:35:07.081Z,877.43
2022-12-23T05:36:07.059Z,877.04
2022-12-23T05:37:07.097Z,876.92
2022-12-23T05:38:08.303Z,876.69
2022-12-23T05:39:07.058Z,876.57
2022-12-23T05:40:07.067Z,876.33
2022-12-23T05:41:07.064Z,876.57
2022-12-23T05:42:07.076Z,876.27
2022-12-23T05:43:07.057Z,875.89
2022-12-23T05:44:07.068Z,875.59
2022-12-23T05:45:07.095Z,875.03
2022-12-23T05:46:07.153Z,874.76
2022-12-23T05:47:07.072Z,874.7
2022-12-23T05:48:07.066Z,874.72
2022-12-23T05:49:09.852Z,874.38
2022-12-23T05:50:07.073Z,874.25
2022-12-23T05:51:07.073Z,874.27
2022-12-23T05:52:07.071Z,873.96
2022-12-23T05:53:07.078Z,874.2
2022-12-23T05:54:07.079Z,874.78
2022-12-23T05:55:07.087Z,874.5
2022-12-23T05:56:07.073Z,874.66
2022-12-23T05:57:07.089Z,874.18
2022-12-23T05:58:07.085Z,873.87
2022-12-23T05:59:07.083Z,873.74
2022-12-23T06:00:10.138Z,874.18
2022-12-23T06:01:07.082Z,874.58
2022-12-23T06:02:07.255Z,874.84
2022-12-23T06:03:07.210Z,875.24
2022-12-23T06:04:07.188Z,875.39
2022-12-23T06:05:07.089Z,875.63
2022-12-23T06:06:07.107Z,876.45
2022-12-23T06:07:07.096Z,877.11
2022-12-23T06:08:07.107Z,876.93
2022-12-23T06:09:07.104Z,877.65
2022-12-23T06:10:07.106Z,878.17
2022-12-23T06:11:10.181Z,878.84
2022-12-23T06:12:07.108Z,880.25
2022-12-23T06:13:07.107Z,880.44
2022-12-23T06:14:07.110Z,881.33
2022-12-23T06:15:07.114Z,882.23
2022-12-23T06:16:07.165Z,883.27
2022-12-23T06:17:07.183Z,884.44
2022-12-23T06:18:07.123Z,885.44
2022-12-23T06:19:07.111Z,886.96
2022-12-23T06:20:07.137Z,888.31
2022-12-23T06:21:07.128Z,889.98
2022-12-23T06:22:07.131Z,891.5
2022-12-23T06:23:07.131Z,892.89
2022-12-23T06:24:07.206Z,894.46
2022-12-23T06:25:07.120Z,895.71
2022-12-23T06:26:07.136Z,897.63
2022-12-23T06:27:07.146Z,899.2
2022-12-23T06:28:07.130Z,900.55
2022-12-23T06:29:07.144Z,901.53
2022-12-23T06:30:07.147Z,903.07
2022-12-23T06:31:07.142Z,904.03
2022-12-23T06:32:07.194Z,905.33
2022-12-23T06:33:07.138Z,906.03
2022-12-23T06:34:07.139Z,907.43
2022-12-23T06:35:07.225Z,908.1
2022-12-23T06:36:07.144Z,908.66
2022-12-23T06:37:07.233Z,908.96
2022-12-23T06:38:11.768Z,909.74
2022-12-23T06:39:07.144Z,910
2022-12-23T06:40:07.160Z,911.35
2022-12-23T06:41:07.153Z,911.37
2022-12-23T06:42:07.158Z,912.22
2022-12-23T06:43:07.186Z,912.68
2022-12-23T06:44:07.161Z,913.37
2022-12-23T06:45:07.163Z,913.88
2022-12-23T06:46:07.203Z,914.03
2022-12-23T06:47:07.168Z,914.82
2022-12-23T06:48:07.272Z,915.34
2022-12-23T06:49:12.721Z,916.13
2022-12-23T06:50:07.167Z,916.25
2022-12-23T06:51:07.160Z,916.71
2022-12-23T06:52:07.202Z,917.63
2022-12-23T06:53:07.164Z,917.93
2022-12-23T06:54:07.201Z,918.05
2022-12-23T06:55:07.182Z,918.24
2022-12-23T06:56:07.202Z,918.64
2022-12-23T06:57:07.175Z,919.2
2022-12-23T06:58:07.176Z,919.27
2022-12-23T06:59:07.223Z,919.54
2022-12-23T07:00:07.201Z,920.07
2022-12-23T07:01:07.264Z,920.3
2022-12-23T07:02:07.361Z,920.33
2022-12-23T07:03:07.285Z,920.92
2022-12-23T07:04:07.239Z,921.48
2022-12-23T07:05:07.191Z,921.69
2022-12-23T07:06:07.190Z,922.35
2022-12-23T07:07:07.190Z,922.51
2022-12-23T07:08:07.211Z,922.84
2022-12-23T07:09:07.219Z,923.41
2022-12-23T07:10:07.241Z,923.57
2022-12-23T07:11:07.205Z,923.78
2022-12-23T07:12:07.205Z,923.51
2022-12-23T07:13:07.206Z,924.38
2022-12-23T07:14:07.234Z,924.89
2022-12-23T07:15:07.217Z,925.11
2022-12-23T07:16:07.223Z,925.38
2022-12-23T07:17:07.282Z,925.84
2022-12-23T07:18:07.213Z,926.11
2022-12-23T07:19:07.287Z,926.19
2022-12-23T07:20:07.246Z,926.39
2022-12-23T07:21:13.467Z,926.69
2022-12-23T07:22:07.214Z,927.58
2022-12-23T07:23:07.210Z,927.78
2022-12-23T07:24:07.260Z,928.16
2022-12-23T07:25:07.218Z,928.25
2022-12-23T07:26:07.223Z,927.71
2022-12-23T07:27:07.222Z,928.14
2022-12-23T07:28:07.228Z,927.7
2022-12-23T07:29:07.263Z,927.87
2022-12-23T07:30:07.225Z,927.79
2022-12-23T07:31:07.369Z,927.66
2022-12-23T07:32:07.269Z,927.53
2022-12-23T07:33:07.242Z,926.84
2022-12-23T07:34:07.253Z,926.54
2022-12-23T07:35:07.236Z,926.27
2022-12-23T07:36:07.266Z,926.45
2022-12-23T07:37:07.245Z,925.87
2022-12-23T07:38:07.245Z,926.41
2022-12-23T07:39:07.256Z,925.97
2022-12-23T07:40:08.876Z,925.47
2022-12-23T07:41:07.250Z,925.38
2022-12-23T07:43:07.248Z,925.65
2022-12-23T07:44:07.279Z,925.88
2022-12-23T07:45:07.253Z,925.73
2022-12-23T07:46:07.282Z,926.12
2022-12-23T07:47:07.259Z,925.91
2022-12-23T07:48:07.297Z,926.53
2022-12-23T07:49:07.277Z,926.49
2022-12-23T07:50:07.271Z,927.03
2022-12-23T07:51:07.256Z,927.68
2022-12-23T07:52:07.288Z,927.3
2022-12-23T07:53:07.267Z,927.89
2022-12-23T07:54:08.367Z,928.15
2022-12-23T07:55:07.289Z,928.52
2022-12-23T07:56:07.273Z,928.91
2022-12-23T07:57:07.265Z,929.18
2022-12-23T07:58:07.273Z,929.1
2022-12-23T07:59:07.266Z,929.29
2022-12-23T08:00:07.290Z,929.51
2022-12-23T08:01:07.323Z,929.71
2022-12-23T08:02:07.437Z,929.88
2022-12-23T08:03:07.331Z,930.28
2022-12-23T08:04:07.293Z,930.55
2022-12-23T08:05:10.092Z,930.93
2022-12-23T08:06:07.290Z,930.95
2022-12-23T08:07:07.279Z,930.91
2022-12-23T08:08:07.360Z,931.27
2022-12-23T08:09:07.283Z,931.4
2022-12-23T08:10:07.349Z,931.82
2022-12-23T08:11:07.287Z,931.96
2022-12-23T08:12:07.285Z,932.16
2022-12-23T08:13:07.305Z,932.22
2022-12-23T08:14:07.310Z,932.34
2022-12-23T08:15:07.292Z,932.83
2022-12-23T08:16:10.450Z,932.74
2022-12-23T08:17:07.328Z,932.76
2022-12-23T08:18:07.303Z,932.82
2022-12-23T08:19:07.306Z,932.73
2022-12-23T08:20:07.310Z,932.86
2022-12-23T08:21:07.319Z,933.29
2022-12-23T08:22:07.305Z,933.71
2022-12-23T08:23:07.316Z,933.83
2022-12-23T08:24:07.439Z,934.41
2022-12-23T08:25:07.316Z,935.01
2022-12-23T08:26:07.318Z,935.59
2022-12-23T08:27:10.133Z,936.01
2022-12-23T08:28:07.315Z,936.34
2022-12-23T08:29:07.325Z,936.78
2022-12-23T08:30:07.331Z,936.87
2022-12-23T08:31:07.350Z,937.76
2022-12-23T08:32:07.339Z,938.23
2022-12-23T08:33:07.328Z,939.34
2022-12-23T08:34:07.330Z,939.75
2022-12-23T08:35:07.326Z,940.71
2022-12-23T08:36:07.328Z,941.57
2022-12-23T08:37:07.335Z,942.03
2022-12-23T08:38:10.403Z,942.65
2022-12-23T08:39:07.372Z,943.28
2022-12-23T08:40:07.380Z,943.69
2022-12-23T08:41:07.346Z,943.95
2022-12-23T08:42:07.342Z,944.41
2022-12-23T08:43:07.348Z,944.94
2022-12-23T08:44:07.355Z,945.38
2022-12-23T08:45:07.347Z,946.41
2022-12-23T08:46:07.386Z,946.88
2022-12-23T08:47:07.346Z,947.21
2022-12-23T08:48:07.346Z,948.33
2022-12-23T08:49:07.347Z,948.72
2022-12-23T08:50:07.350Z,948.5
2022-12-23T08:51:07.351Z,948.48
2022-12-23T08:52:07.357Z,948.79
2022-12-23T08:53:07.361Z,948.81
2022-12-23T08:54:07.360Z,949.03
2022-12-23T08:55:07.364Z,949.23
2022-12-23T08:56:07.395Z,949.52
2022-12-23T08:57:07.371Z,949.72
2022-12-23T08:58:07.368Z,950.21
2022-12-23T08:59:07.401Z,950.74
2022-12-23T09:00:07.371Z,951.16
2022-12-23T09:01:07.427Z,951.22
2022-12-23T09:02:07.512Z,951.22
2022-12-23T09:03:07.528Z,951.91
2022-12-23T09:04:07.375Z,951.74
2022-12-23T09:05:07.387Z,952.19
2022-12-23T09:06:07.376Z,952.47
2022-12-23T09:07:07.383Z,952.58
2022-12-23T09:08:07.391Z,952.88
2022-12-23T09:09:07.393Z,952.9
2022-12-23T09:10:10.170Z,952.99
2022-12-23T09:11:07.383Z,953.18
2022-12-23T09:12:07.529Z,953.8
2022-12-23T09:13:07.399Z,954.09
2022-12-23T09:14:07.399Z,954.22
2022-12-23T09:15:07.414Z,954.61
2022-12-23T09:16:07.507Z,955.02
2022-12-23T09:17:07.399Z,955.76
2022-12-23T09:18:07.395Z,956.68
2022-12-23T09:19:07.396Z,957.79
2022-12-23T09:20:07.407Z,959.44
2022-12-23T09:21:07.409Z,960.48
2022-12-23T09:22:07.406Z,961.92
2022-12-23T09:23:07.402Z,963.09
2022-12-23T09:24:07.412Z,964.16
2022-12-23T09:25:07.426Z,965.35
2022-12-23T09:26:07.416Z,966.52
2022-12-23T09:27:07.415Z,967.13
2022-12-23T09:28:07.447Z,968.15
2022-12-23T09:29:07.419Z,969.04
2022-12-23T09:30:07.420Z,969.96
2022-12-23T09:31:07.455Z,970.56
2022-12-23T09:32:07.423Z,970.93
2022-12-23T09:33:07.426Z,971.18
2022-12-23T09:34:07.441Z,971.71
2022-12-23T09:35:07.441Z,972.19
2022-12-23T09:36:07.439Z,972.33
2022-12-23T09:37:07.433Z,972.25
2022-12-23T09:38:07.434Z,972.28
2022-12-23T09:39:07.436Z,972.48
2022-12-23T09:40:07.454Z,972.44
2022-12-23T09:41:07.448Z,972.96
2022-12-23T09:42:07.437Z,972.66
2022-12-23T09:43:07.439Z,972.49
2022-12-23T09:44:07.483Z,972.77
2022-12-23T09:45:07.446Z,972.78
2022-12-23T09:46:07.502Z,972.98
2022-12-23T09:47:07.453Z,973.3
2022-12-23T09:48:07.466Z,973.04
2022-12-23T09:49:07.445Z,973.16
2022-12-23T09:50:07.449Z,973.35
2022-12-23T09:51:07.455Z,973.05
2022-12-23T09:52:07.460Z,972.82
2022-12-23T09:53:07.485Z,973.22
2022-12-23T09:54:10.838Z,973.09
2022-12-23T09:55:07.454Z,973.02
2022-12-23T09:56:07.463Z,973.33
2022-12-23T09:57:07.491Z,973.31
2022-12-23T09:58:07.474Z,972.8
2022-12-23T09:59:07.468Z,972.51
2022-12-23T10:00:07.597Z,972.15
2022-12-23T10:01:07.469Z,972.24
2022-12-23T10:02:07.556Z,971.74
2022-12-23T10:03:07.646Z,971.91
2022-12-23T10:04:07.507Z,971.51
2022-12-23T10:05:07.480Z,971.34
2022-12-23T10:06:07.476Z,971.11
2022-12-23T10:07:07.486Z,971.35
2022-12-23T10:08:07.490Z,971.4
2022-12-23T10:09:07.478Z,970.73
2022-12-23T10:10:07.498Z,970.76
2022-12-23T10:11:07.492Z,970.35
2022-12-23T10:12:07.491Z,970.39
2022-12-23T10:13:07.488Z,969.77
2022-12-23T10:14:07.496Z,969.81
2022-12-23T10:15:07.497Z,969.63
2022-12-23T10:16:07.636Z,969.22
2022-12-23T10:17:07.493Z,969.65
2022-12-23T10:18:07.503Z,969.58
2022-12-23T10:19:07.495Z,969.69
2022-12-23T10:20:07.503Z,969.92
2022-12-23T10:21:10.357Z,970.22
2022-12-23T10:22:07.502Z,970.66
2022-12-23T10:23:07.512Z,971
2022-12-23T10:24:07.517Z,970.97
2022-12-23T10:25:07.509Z,971.3
2022-12-23T10:26:07.513Z,972.19
2022-12-23T10:27:07.514Z,972.64
2022-12-23T10:28:07.511Z,972.69
2022-12-23T10:29:07.520Z,972.79
2022-12-23T10:30:26.955Z,973.5
2022-12-23T10:31:44.689Z,974.27
2022-12-23T10:32:44.652Z,974.68
2022-12-23T10:33:44.580Z,974.94
2022-12-23T10:34:44.626Z,975.34
2022-12-23T10:35:44.582Z,975.59
2022-12-23T10:36:44.711Z,975.92
2022-12-23T10:37:44.586Z,976.21
2022-12-23T10:38:44.576Z,976.36
2022-12-23T10:39:44.603Z,976.73
2022-12-23T10:40:47.359Z,976.95
2022-12-23T10:41:44.588Z,977.35
2022-12-23T10:42:44.593Z,977.74
2022-12-23T10:43:44.589Z,977.96
2022-12-23T10:44:44.621Z,978.14
2022-12-23T10:45:44.589Z,978.82
2022-12-23T10:46:44.682Z,978.88
2022-12-23T10:47:44.624Z,979.23
2022-12-23T10:48:44.596Z,979.24
2022-12-23T10:49:44.627Z,979.37
2022-12-23T10:50:44.608Z,979.47
2022-12-23T10:51:47.595Z,979.65
2022-12-23T10:52:44.601Z,980.34
2022-12-23T10:53:44.604Z,980.17
2022-12-23T10:54:44.638Z,980.45
2022-12-23T10:55:44.614Z,980.33
2022-12-23T10:56:44.623Z,980.86
2022-12-23T10:57:44.615Z,980.43
2022-12-23T10:58:44.612Z,980.78
2022-12-23T10:59:44.641Z,980.39
2022-12-23T11:00:44.665Z,980.66
2022-12-23T11:01:44.775Z,980.37
2022-12-23T11:02:44.756Z,980.42
2022-12-23T11:03:44.693Z,980.07
2022-12-23T11:04:44.664Z,979.72
2022-12-23T11:05:44.633Z,980
2022-12-23T11:06:44.624Z,980.07
2022-12-23T11:07:46.896Z,980.12
2022-12-23T11:08:46.542Z,980.15
2022-12-23T11:09:46.584Z,980.68
2022-12-23T11:10:46.555Z,980.96
2022-12-23T11:11:46.561Z,981.47
2022-12-23T11:12:46.551Z,981.33
2022-12-23T11:13:49.644Z,981.44
2022-12-23T11:14:46.582Z,982.26
2022-12-23T11:15:46.559Z,982.17
2022-12-23T11:16:46.615Z,982.43
2022-12-23T11:17:46.560Z,982.44
2022-12-23T11:18:46.560Z,982.56
2022-12-23T11:19:46.650Z,982.9
2022-12-23T11:20:46.570Z,983.26
2022-12-23T11:21:46.575Z,982.82
2022-12-23T11:22:46.708Z,983.16
2022-12-23T11:23:46.641Z,982.67
2022-12-23T11:24:50.614Z,982.68
2022-12-23T11:25:46.690Z,982.79
2022-12-23T11:26:46.754Z,983
2022-12-23T11:27:46.693Z,983.1
2022-12-23T11:28:46.664Z,983.59
2022-12-23T11:29:46.703Z,983.68
2022-12-23T11:30:48.930Z,983.97
2022-12-23T11:31:46.627Z,984.58
2022-12-23T11:32:46.598Z,985.04
2022-12-23T11:33:46.592Z,985.48
2022-12-23T11:34:46.611Z,985.56
2022-12-23T11:35:49.675Z,986.01
2022-12-23T11:36:50.091Z,986.35
2022-12-23T11:37:46.591Z,986.26
2022-12-23T11:38:46.593Z,986.87
2022-12-23T11:39:46.626Z,986.73
2022-12-23T11:40:46.599Z,987.32
2022-12-23T11:41:46.598Z,987.43
2022-12-23T11:42:50.342Z,987.83
2022-12-23T11:43:46.607Z,988.1
2022-12-23T11:44:46.642Z,988.28
2022-12-23T11:45:46.698Z,988.75
2022-12-23T11:46:46.674Z,989.06
2022-12-23T11:47:46.609Z,988.93
2022-12-23T11:48:51.409Z,989.19
2022-12-23T11:49:46.634Z,989.29
2022-12-23T11:50:46.622Z,989.35
2022-12-23T11:51:46.646Z,989.34
2022-12-23T11:52:46.627Z,989.7
2022-12-23T11:53:46.623Z,989.86
2022-12-23T11:54:49.820Z,990.22
2022-12-23T11:55:46.632Z,990.36
2022-12-23T11:56:46.689Z,990.51
2022-12-23T11:57:46.623Z,990.68
2022-12-23T11:58:46.642Z,991.13
2022-12-23T11:59:46.657Z,991.4
2022-12-23T12:00:50.619Z,991.66
2022-12-23T12:01:46.738Z,992.07
2022-12-23T12:02:46.739Z,992.27
2022-12-23T12:03:46.701Z,992.71
2022-12-23T12:04:46.661Z,992.33
2022-12-23T12:05:46.647Z,992.83
2022-12-23T12:06:51.238Z,992.63
2022-12-23T12:07:46.669Z,992.99
2022-12-23T12:08:46.656Z,992.89
2022-12-23T12:09:46.673Z,992.96
2022-12-23T12:10:46.652Z,993.15
2022-12-23T12:11:46.655Z,992.92
2022-12-23T12:12:49.988Z,992.79
2022-12-23T12:13:46.653Z,992.97
2022-12-23T12:14:46.696Z,992.96
2022-12-23T12:15:46.664Z,993.12
2022-12-23T12:16:46.703Z,993.2
2022-12-23T12:17:46.662Z,993.26
2022-12-23T12:18:50.573Z,993.63
2022-12-23T12:19:46.700Z,993.63
2022-12-23T12:20:46.667Z,993.71
2022-12-23T12:21:46.675Z,993.44
2022-12-23T12:22:46.673Z,993.62
2022-12-23T12:23:46.703Z,993.81
2022-12-23T12:24:46.712Z,994.25
2022-12-23T12:25:46.671Z,994.45
2022-12-23T12:26:46.684Z,994.41
2022-12-23T12:27:46.688Z,994.96
2022-12-23T12:28:46.683Z,994.65
2022-12-23T12:29:46.713Z,994.9
2022-12-23T12:30:46.723Z,994.74
2022-12-23T12:31:46.685Z,994.82
2022-12-23T12:32:46.684Z,994.71
2022-12-23T12:33:46.687Z,995.07